sensor_id;sensor_type;location;lat;lon;timestamp;P1;durP1;ratioP1;P2;durP2;ratioP2
13493;SDS011;6819;50.886;4.332;2023-06-10T00:01:41;14.80;;;7.07;;
13493;SDS011;6819;50.886;4.332;2023-06-10T00:04:08;9.05;;;6.20;;
13493;SDS011;6819;50.886;4.332;2023-06-10T00:06:34;7.80;;;6.40;;
13493;SDS011;6819;50.886;4.332;2023-06-10T00:09:04;11.30;;;6.10;;
13493;SDS011;6819;50.886;4.332;2023-06-10T00:11:33;8.52;;;6.53;;
13493;SDS011;6819;50.886;4.332;2023-06-10T00:14:00;8.23;;;5.90;;
13493;SDS011;6819;50.886;4.332;2023-06-10T00:16:26;8.18;;;6.25;;
13493;SDS011;6819;50.886;4.332;2023-06-10T00:18:52;9.95;;;6.70;;
13493;SDS011;6819;50.886;4.332;2023-06-10T00:21:20;12.63;;;6.60;;
13493;SDS011;6819;50.886;4.332;2023-06-10T00:23:48;9.70;;;6.50;;
13493;SDS011;6819;50.886;4.332;2023-06-10T00:26:14;13.20;;;6.43;;
13493;SDS011;6819;50.886;4.332;2023-06-10T00:28:40;7.80;;;6.60;;
13493;SDS011;6819;50.886;4.332;2023-06-10T00:31:06;7.72;;;6.60;;
13493;SDS011;6819;50.886;4.332;2023-06-10T00:33:33;12.20;;;7.28;;
13493;SDS011;6819;50.886;4.332;2023-06-10T00:35:59;10.73;;;6.93;;
13493;SDS011;6819;50.886;4.332;2023-06-10T00:38:25;10.57;;;6.53;;
13493;SDS011;6819;50.886;4.332;2023-06-10T00:40:51;8.20;;;6.50;;
13493;SDS011;6819;50.886;4.332;2023-06-10T00:43:17;9.13;;;6.93;;
13493;SDS011;6819;50.886;4.332;2023-06-10T00:45:43;9.40;;;6.30;;
13493;SDS011;6819;50.886;4.332;2023-06-10T00:48:09;11.07;;;6.25;;
13493;SDS011;6819;50.886;4.332;2023-06-10T00:50:35;9.75;;;6.57;;
13493;SDS011;6819;50.886;4.332;2023-06-10T00:53:04;9.13;;;6.63;;
13493;SDS011;6819;50.886;4.332;2023-06-10T00:55:30;8.90;;;6.57;;
13493;SDS011;6819;50.886;4.332;2023-06-10T00:57:57;14.55;;;7.05;;
13493;SDS011;6819;50.886;4.332;2023-06-10T01:00:24;10.23;;;6.03;;
13493;SDS011;6819;50.886;4.332;2023-06-10T01:02:51;11.02;;;6.78;;
13493;SDS011;6819;50.886;4.332;2023-06-10T01:05:20;10.48;;;6.75;;
13493;SDS011;6819;50.886;4.332;2023-06-10T01:10:38;7.97;;;6.43;;
13493;SDS011;6819;50.886;4.332;2023-06-10T01:13:07;11.73;;;6.70;;
13493;SDS011;6819;50.886;4.332;2023-06-10T01:15:36;9.65;;;6.15;;
13493;SDS011;6819;50.886;4.332;2023-06-10T01:18:04;7.35;;;6.55;;
13493;SDS011;6819;50.886;4.332;2023-06-10T01:20:34;8.57;;;6.35;;
13493;SDS011;6819;50.886;4.332;2023-06-10T01:23:01;10.05;;;6.65;;
13493;SDS011;6819;50.886;4.332;2023-06-10T01:25:28;9.15;;;6.20;;
13493;SDS011;6819;50.886;4.332;2023-06-10T01:30:53;10.32;;;6.30;;
13493;SDS011;6819;50.886;4.332;2023-06-10T01:33:28;8.35;;;6.30;;
13493;SDS011;6819;50.886;4.332;2023-06-10T01:35:56;9.03;;;7.03;;
13493;SDS011;6819;50.886;4.332;2023-06-10T01:38:22;8.60;;;6.32;;
13493;SDS011;6819;50.886;4.332;2023-06-10T01:40:50;10.63;;;6.93;;
13493;SDS011;6819;50.886;4.332;2023-06-10T01:43:19;8.93;;;6.85;;
13493;SDS011;6819;50.886;4.332;2023-06-10T01:45:45;7.88;;;6.60;;
13493;SDS011;6819;50.886;4.332;2023-06-10T01:48:11;9.57;;;6.65;;
13493;SDS011;6819;50.886;4.332;2023-06-10T01:50:37;9.93;;;6.68;;
13493;SDS011;6819;50.886;4.332;2023-06-10T01:53:04;7.38;;;6.47;;
13493;SDS011;6819;50.886;4.332;2023-06-10T01:55:32;9.63;;;7.13;;
13493;SDS011;6819;50.886;4.332;2023-06-10T01:57:58;9.05;;;7.10;;
13493;SDS011;6819;50.886;4.332;2023-06-10T02:00:24;10.00;;;6.55;;
13493;SDS011;6819;50.886;4.332;2023-06-10T02:02:50;9.73;;;6.43;;
13493;SDS011;6819;50.886;4.332;2023-06-10T02:05:16;7.82;;;6.47;;
13493;SDS011;6819;50.886;4.332;2023-06-10T02:07:43;13.13;;;7.15;;
13493;SDS011;6819;50.886;4.332;2023-06-10T02:10:09;9.30;;;7.10;;
13493;SDS011;6819;50.886;4.332;2023-06-10T02:12:35;8.90;;;6.47;;
13493;SDS011;6819;50.886;4.332;2023-06-10T02:15:01;8.20;;;6.93;;
13493;SDS011;6819;50.886;4.332;2023-06-10T02:17:28;11.65;;;6.70;;
13493;SDS011;6819;50.886;4.332;2023-06-10T02:19:55;8.48;;;6.85;;
13493;SDS011;6819;50.886;4.332;2023-06-10T02:22:22;10.10;;;7.03;;
13493;SDS011;6819;50.886;4.332;2023-06-10T02:24:48;11.70;;;7.45;;
13493;SDS011;6819;50.886;4.332;2023-06-10T02:27:15;11.50;;;7.15;;
13493;SDS011;6819;50.886;4.332;2023-06-10T02:29:41;10.55;;;6.53;;
13493;SDS011;6819;50.886;4.332;2023-06-10T02:32:08;8.38;;;7.15;;
13493;SDS011;6819;50.886;4.332;2023-06-10T02:34:35;13.77;;;8.07;;
13493;SDS011;6819;50.886;4.332;2023-06-10T02:37:01;10.27;;;7.32;;
13493;SDS011;6819;50.886;4.332;2023-06-10T02:39:27;10.88;;;6.65;;
13493;SDS011;6819;50.886;4.332;2023-06-10T02:41:53;9.25;;;6.90;;
13493;SDS011;6819;50.886;4.332;2023-06-10T02:44:19;11.20;;;7.25;;
13493;SDS011;6819;50.886;4.332;2023-06-10T02:46:46;10.70;;;7.25;;
13493;SDS011;6819;50.886;4.332;2023-06-10T02:49:12;9.50;;;7.03;;
13493;SDS011;6819;50.886;4.332;2023-06-10T02:51:38;10.45;;;6.85;;
13493;SDS011;6819;50.886;4.332;2023-06-10T02:54:04;9.65;;;6.93;;
13493;SDS011;6819;50.886;4.332;2023-06-10T02:56:30;12.90;;;7.32;;
13493;SDS011;6819;50.886;4.332;2023-06-10T02:58:58;8.73;;;7.07;;
13493;SDS011;6819;50.886;4.332;2023-06-10T03:01:24;11.98;;;7.15;;
13493;SDS011;6819;50.886;4.332;2023-06-10T03:03:50;15.20;;;7.78;;
13493;SDS011;6819;50.886;4.332;2023-06-10T03:06:17;8.88;;;7.70;;
13493;SDS011;6819;50.886;4.332;2023-06-10T03:08:43;10.25;;;7.47;;
13493;SDS011;6819;50.886;4.332;2023-06-10T03:11:10;11.52;;;7.25;;
13493;SDS011;6819;50.886;4.332;2023-06-10T03:13:38;12.77;;;7.97;;
13493;SDS011;6819;50.886;4.332;2023-06-10T03:16:05;11.15;;;7.47;;
13493;SDS011;6819;50.886;4.332;2023-06-10T03:18:31;10.63;;;7.63;;
13493;SDS011;6819;50.886;4.332;2023-06-10T03:20:57;12.02;;;7.43;;
13493;SDS011;6819;50.886;4.332;2023-06-10T03:23:24;13.40;;;7.45;;
13493;SDS011;6819;50.886;4.332;2023-06-10T03:25:50;11.10;;;7.75;;
13493;SDS011;6819;50.886;4.332;2023-06-10T03:28:16;9.10;;;7.78;;
13493;SDS011;6819;50.886;4.332;2023-06-10T03:30:42;10.77;;;7.75;;
13493;SDS011;6819;50.886;4.332;2023-06-10T03:33:08;12.38;;;7.55;;
13493;SDS011;6819;50.886;4.332;2023-06-10T03:35:34;10.10;;;7.85;;
13493;SDS011;6819;50.886;4.332;2023-06-10T03:38:00;11.93;;;7.90;;
13493;SDS011;6819;50.886;4.332;2023-06-10T03:40:26;16.75;;;7.32;;
13493;SDS011;6819;50.886;4.332;2023-06-10T03:42:52;9.48;;;7.72;;
13493;SDS011;6819;50.886;4.332;2023-06-10T03:45:18;10.18;;;7.93;;
13493;SDS011;6819;50.886;4.332;2023-06-10T03:47:45;9.77;;;7.15;;
13493;SDS011;6819;50.886;4.332;2023-06-10T03:50:13;14.20;;;8.60;;
13493;SDS011;6819;50.886;4.332;2023-06-10T03:52:39;12.98;;;7.40;;
13493;SDS011;6819;50.886;4.332;2023-06-10T03:55:06;9.38;;;7.90;;
13493;SDS011;6819;50.886;4.332;2023-06-10T03:57:32;10.93;;;8.05;;
13493;SDS011;6819;50.886;4.332;2023-06-10T03:59:58;11.82;;;8.38;;
13493;SDS011;6819;50.886;4.332;2023-06-10T04:02:24;9.10;;;7.85;;
13493;SDS011;6819;50.886;4.332;2023-06-10T04:04:50;10.93;;;7.85;;
13493;SDS011;6819;50.886;4.332;2023-06-10T04:07:16;14.80;;;7.93;;
13493;SDS011;6819;50.886;4.332;2023-06-10T04:09:45;10.77;;;8.57;;
13493;SDS011;6819;50.886;4.332;2023-06-10T04:12:11;9.60;;;8.02;;
13493;SDS011;6819;50.886;4.332;2023-06-10T04:14:38;11.20;;;7.90;;
13493;SDS011;6819;50.886;4.332;2023-06-10T04:17:04;12.60;;;8.38;;
13493;SDS011;6819;50.886;4.332;2023-06-10T04:19:31;12.43;;;8.68;;
13493;SDS011;6819;50.886;4.332;2023-06-10T04:21:58;12.25;;;8.73;;
13493;SDS011;6819;50.886;4.332;2023-06-10T04:24:25;16.27;;;8.77;;
13493;SDS011;6819;50.886;4.332;2023-06-10T04:26:51;11.48;;;8.63;;
13493;SDS011;6819;50.886;4.332;2023-06-10T04:29:17;11.07;;;8.43;;
13493;SDS011;6819;50.886;4.332;2023-06-10T04:31:43;9.48;;;8.18;;
13493;SDS011;6819;50.886;4.332;2023-06-10T04:34:11;14.43;;;8.45;;
13493;SDS011;6819;50.886;4.332;2023-06-10T04:36:37;10.02;;;8.38;;
13493;SDS011;6819;50.886;4.332;2023-06-10T04:39:03;20.48;;;9.80;;
13493;SDS011;6819;50.886;4.332;2023-06-10T04:41:30;11.07;;;8.98;;
13493;SDS011;6819;50.886;4.332;2023-06-10T04:43:56;12.43;;;8.52;;
13493;SDS011;6819;50.886;4.332;2023-06-10T04:46:23;9.52;;;8.05;;
13493;SDS011;6819;50.886;4.332;2023-06-10T04:48:49;12.35;;;8.13;;
13493;SDS011;6819;50.886;4.332;2023-06-10T04:51:15;13.13;;;8.90;;
13493;SDS011;6819;50.886;4.332;2023-06-10T04:53:41;12.55;;;8.93;;
13493;SDS011;6819;50.886;4.332;2023-06-10T04:56:07;14.32;;;8.82;;
13493;SDS011;6819;50.886;4.332;2023-06-10T04:58:34;19.00;;;8.50;;
13493;SDS011;6819;50.886;4.332;2023-06-10T05:01:00;16.50;;;9.05;;
13493;SDS011;6819;50.886;4.332;2023-06-10T05:03:27;12.45;;;8.65;;
13493;SDS011;6819;50.886;4.332;2023-06-10T05:05:53;10.43;;;7.97;;
13493;SDS011;6819;50.886;4.332;2023-06-10T05:08:19;20.30;;;9.00;;
13493;SDS011;6819;50.886;4.332;2023-06-10T05:10:45;11.20;;;9.02;;
13493;SDS011;6819;50.886;4.332;2023-06-10T05:13:12;12.18;;;8.65;;
13493;SDS011;6819;50.886;4.332;2023-06-10T05:15:38;13.88;;;9.35;;
13493;SDS011;6819;50.886;4.332;2023-06-10T05:18:04;17.25;;;8.55;;
13493;SDS011;6819;50.886;4.332;2023-06-10T05:20:30;12.60;;;8.75;;
13493;SDS011;6819;50.886;4.332;2023-06-10T05:22:56;10.52;;;8.95;;
13493;SDS011;6819;50.886;4.332;2023-06-10T05:25:22;11.20;;;9.05;;
13493;SDS011;6819;50.886;4.332;2023-06-10T05:27:48;11.27;;;8.63;;
13493;SDS011;6819;50.886;4.332;2023-06-10T05:30:14;11.23;;;8.63;;
13493;SDS011;6819;50.886;4.332;2023-06-10T05:32:40;11.45;;;9.60;;
13493;SDS011;6819;50.886;4.332;2023-06-10T05:35:06;16.25;;;9.40;;
13493;SDS011;6819;50.886;4.332;2023-06-10T05:37:33;16.25;;;9.70;;
13493;SDS011;6819;50.886;4.332;2023-06-10T05:40:01;12.32;;;8.35;;
13493;SDS011;6819;50.886;4.332;2023-06-10T05:42:29;10.90;;;8.25;;
13493;SDS011;6819;50.886;4.332;2023-06-10T05:44:55;11.98;;;8.27;;
13493;SDS011;6819;50.886;4.332;2023-06-10T05:47:21;13.13;;;7.95;;
13493;SDS011;6819;50.886;4.332;2023-06-10T05:49:47;13.23;;;8.40;;
13493;SDS011;6819;50.886;4.332;2023-06-10T05:52:15;12.30;;;7.60;;
13493;SDS011;6819;50.886;4.332;2023-06-10T05:54:41;16.08;;;8.90;;
13493;SDS011;6819;50.886;4.332;2023-06-10T05:57:07;10.65;;;8.43;;
13493;SDS011;6819;50.886;4.332;2023-06-10T05:59:33;11.55;;;8.07;;
13493;SDS011;6819;50.886;4.332;2023-06-10T06:01:59;12.07;;;8.77;;
13493;SDS011;6819;50.886;4.332;2023-06-10T06:04:25;9.35;;;7.63;;
13493;SDS011;6819;50.886;4.332;2023-06-10T06:06:51;11.15;;;8.25;;
13493;SDS011;6819;50.886;4.332;2023-06-10T06:09:17;11.60;;;8.45;;
13493;SDS011;6819;50.886;4.332;2023-06-10T06:11:43;11.38;;;7.78;;
13493;SDS011;6819;50.886;4.332;2023-06-10T06:14:09;10.55;;;8.10;;
13493;SDS011;6819;50.886;4.332;2023-06-10T06:16:35;11.93;;;8.02;;
13493;SDS011;6819;50.886;4.332;2023-06-10T06:19:01;14.20;;;8.75;;
13493;SDS011;6819;50.886;4.332;2023-06-10T06:21:27;11.60;;;8.45;;
13493;SDS011;6819;50.886;4.332;2023-06-10T06:23:53;8.38;;;7.57;;
13493;SDS011;6819;50.886;4.332;2023-06-10T06:26:19;11.38;;;7.22;;
13493;SDS011;6819;50.886;4.332;2023-06-10T06:28:45;11.60;;;7.72;;
13493;SDS011;6819;50.886;4.332;2023-06-10T06:31:11;10.90;;;8.05;;
13493;SDS011;6819;50.886;4.332;2023-06-10T06:33:38;12.73;;;7.85;;
13493;SDS011;6819;50.886;4.332;2023-06-10T06:36:04;9.75;;;7.22;;
13493;SDS011;6819;50.886;4.332;2023-06-10T06:38:30;8.85;;;7.47;;
13493;SDS011;6819;50.886;4.332;2023-06-10T06:40:56;16.58;;;8.10;;
13493;SDS011;6819;50.886;4.332;2023-06-10T06:43:27;10.55;;;8.48;;
13493;SDS011;6819;50.886;4.332;2023-06-10T06:45:54;11.07;;;7.70;;
13493;SDS011;6819;50.886;4.332;2023-06-10T06:48:20;9.68;;;7.72;;
13493;SDS011;6819;50.886;4.332;2023-06-10T06:50:46;12.27;;;8.02;;
13493;SDS011;6819;50.886;4.332;2023-06-10T06:53:12;9.63;;;7.38;;
13493;SDS011;6819;50.886;4.332;2023-06-10T06:55:38;10.63;;;7.97;;
13493;SDS011;6819;50.886;4.332;2023-06-10T06:58:04;14.93;;;7.88;;
13493;SDS011;6819;50.886;4.332;2023-06-10T07:00:30;10.60;;;7.20;;
13493;SDS011;6819;50.886;4.332;2023-06-10T07:02:56;15.00;;;8.85;;
13493;SDS011;6819;50.886;4.332;2023-06-10T07:05:22;10.50;;;7.93;;
13493;SDS011;6819;50.886;4.332;2023-06-10T07:07:51;11.90;;;7.93;;
13493;SDS011;6819;50.886;4.332;2023-06-10T07:10:20;11.23;;;7.90;;
13493;SDS011;6819;50.886;4.332;2023-06-10T07:12:47;13.00;;;7.82;;
13493;SDS011;6819;50.886;4.332;2023-06-10T07:15:13;13.70;;;8.07;;
13493;SDS011;6819;50.886;4.332;2023-06-10T07:17:39;8.57;;;6.63;;
13493;SDS011;6819;50.886;4.332;2023-06-10T07:20:05;8.55;;;7.25;;
13493;SDS011;6819;50.886;4.332;2023-06-10T07:22:31;11.68;;;7.72;;
13493;SDS011;6819;50.886;4.332;2023-06-10T07:24:57;10.63;;;7.63;;
13493;SDS011;6819;50.886;4.332;2023-06-10T07:27:24;15.13;;;7.90;;
13493;SDS011;6819;50.886;4.332;2023-06-10T07:29:50;10.85;;;7.75;;
13493;SDS011;6819;50.886;4.332;2023-06-10T07:32:17;10.75;;;8.48;;
13493;SDS011;6819;50.886;4.332;2023-06-10T07:34:45;14.55;;;8.20;;
13493;SDS011;6819;50.886;4.332;2023-06-10T07:37:11;11.27;;;8.05;;
13493;SDS011;6819;50.886;4.332;2023-06-10T07:39:37;9.32;;;7.55;;
13493;SDS011;6819;50.886;4.332;2023-06-10T07:42:03;8.35;;;6.95;;
13493;SDS011;6819;50.886;4.332;2023-06-10T07:44:29;10.55;;;7.63;;
13493;SDS011;6819;50.886;4.332;2023-06-10T07:46:55;15.50;;;6.97;;
13493;SDS011;6819;50.886;4.332;2023-06-10T07:49:23;8.18;;;7.10;;
13493;SDS011;6819;50.886;4.332;2023-06-10T07:51:49;8.98;;;6.63;;
13493;SDS011;6819;50.886;4.332;2023-06-10T07:54:15;7.75;;;6.60;;
13493;SDS011;6819;50.886;4.332;2023-06-10T07:56:41;9.32;;;6.30;;
13493;SDS011;6819;50.886;4.332;2023-06-10T07:59:07;8.40;;;6.30;;
13493;SDS011;6819;50.886;4.332;2023-06-10T08:01:33;9.65;;;5.97;;
13493;SDS011;6819;50.886;4.332;2023-06-10T08:04:01;9.38;;;6.47;;
13493;SDS011;6819;50.886;4.332;2023-06-10T08:06:27;8.98;;;6.25;;
13493;SDS011;6819;50.886;4.332;2023-06-10T08:08:53;7.32;;;6.00;;
13493;SDS011;6819;50.886;4.332;2023-06-10T08:11:19;7.15;;;6.03;;
13493;SDS011;6819;50.886;4.332;2023-06-10T08:13:45;7.95;;;6.18;;
13493;SDS011;6819;50.886;4.332;2023-06-10T08:16:11;8.75;;;6.43;;
13493;SDS011;6819;50.886;4.332;2023-06-10T08:18:37;9.02;;;6.20;;
13493;SDS011;6819;50.886;4.332;2023-06-10T08:21:03;8.95;;;6.55;;
13493;SDS011;6819;50.886;4.332;2023-06-10T08:23:29;9.60;;;6.35;;
13493;SDS011;6819;50.886;4.332;2023-06-10T08:25:55;7.25;;;6.10;;
13493;SDS011;6819;50.886;4.332;2023-06-10T08:28:22;7.05;;;5.90;;
13493;SDS011;6819;50.886;4.332;2023-06-10T08:30:49;8.55;;;6.05;;
13493;SDS011;6819;50.886;4.332;2023-06-10T08:33:15;7.63;;;5.78;;
13493;SDS011;6819;50.886;4.332;2023-06-10T08:35:41;9.07;;;6.45;;
13493;SDS011;6819;50.886;4.332;2023-06-10T08:38:07;8.23;;;5.32;;
13493;SDS011;6819;50.886;4.332;2023-06-10T08:40:33;6.38;;;5.65;;
13493;SDS011;6819;50.886;4.332;2023-06-10T08:43:05;7.90;;;5.70;;
13493;SDS011;6819;50.886;4.332;2023-06-10T08:45:32;6.57;;;5.85;;
13493;SDS011;6819;50.886;4.332;2023-06-10T08:48:00;10.25;;;5.90;;
13493;SDS011;6819;50.886;4.332;2023-06-10T08:50:31;8.35;;;5.85;;
13493;SDS011;6819;50.886;4.332;2023-06-10T08:52:57;7.95;;;5.85;;
13493;SDS011;6819;50.886;4.332;2023-06-10T08:55:29;9.13;;;5.55;;
13493;SDS011;6819;50.886;4.332;2023-06-10T08:57:56;10.63;;;6.15;;
13493;SDS011;6819;50.886;4.332;2023-06-10T09:00:23;8.02;;;5.97;;
13493;SDS011;6819;50.886;4.332;2023-06-10T09:02:49;7.30;;;5.78;;
13493;SDS011;6819;50.886;4.332;2023-06-10T09:05:15;6.75;;;5.90;;
13493;SDS011;6819;50.886;4.332;2023-06-10T09:07:42;7.18;;;6.15;;
13493;SDS011;6819;50.886;4.332;2023-06-10T09:10:08;8.27;;;5.90;;
13493;SDS011;6819;50.886;4.332;2023-06-10T09:12:35;9.48;;;5.85;;
13493;SDS011;6819;50.886;4.332;2023-06-10T09:15:03;11.02;;;5.57;;
13493;SDS011;6819;50.886;4.332;2023-06-10T09:17:29;7.82;;;5.43;;
13493;SDS011;6819;50.886;4.332;2023-06-10T09:19:55;11.27;;;5.30;;
13493;SDS011;6819;50.886;4.332;2023-06-10T09:22:22;6.30;;;5.40;;
13493;SDS011;6819;50.886;4.332;2023-06-10T09:24:49;8.68;;;5.10;;
13493;SDS011;6819;50.886;4.332;2023-06-10T09:27:15;7.30;;;5.00;;
13493;SDS011;6819;50.886;4.332;2023-06-10T09:29:48;7.22;;;4.97;;
13493;SDS011;6819;50.886;4.332;2023-06-10T09:32:19;6.85;;;5.35;;
13493;SDS011;6819;50.886;4.332;2023-06-10T09:34:46;7.47;;;5.97;;
13493;SDS011;6819;50.886;4.332;2023-06-10T09:37:12;9.38;;;5.60;;
13493;SDS011;6819;50.886;4.332;2023-06-10T09:39:41;7.03;;;5.63;;
13493;SDS011;6819;50.886;4.332;2023-06-10T09:42:17;6.50;;;5.10;;
13493;SDS011;6819;50.886;4.332;2023-06-10T09:44:48;7.05;;;5.25;;
13493;SDS011;6819;50.886;4.332;2023-06-10T09:47:19;7.07;;;5.40;;
13493;SDS011;6819;50.886;4.332;2023-06-10T09:49:45;6.22;;;5.07;;
13493;SDS011;6819;50.886;4.332;2023-06-10T09:52:11;7.50;;;5.13;;
13493;SDS011;6819;50.886;4.332;2023-06-10T09:54:37;5.65;;;4.93;;
13493;SDS011;6819;50.886;4.332;2023-06-10T09:57:06;10.30;;;5.35;;
13493;SDS011;6819;50.886;4.332;2023-06-10T09:59:35;11.60;;;5.60;;
13493;SDS011;6819;50.886;4.332;2023-06-10T10:02:03;7.25;;;5.38;;
13493;SDS011;6819;50.886;4.332;2023-06-10T10:04:29;6.03;;;4.82;;
13493;SDS011;6819;50.886;4.332;2023-06-10T10:06:55;7.15;;;5.47;;
13493;SDS011;6819;50.886;4.332;2023-06-10T10:09:23;9.93;;;4.88;;
13493;SDS011;6819;50.886;4.332;2023-06-10T10:11:49;6.47;;;5.15;;
13493;SDS011;6819;50.886;4.332;2023-06-10T10:14:15;7.30;;;4.82;;
13493;SDS011;6819;50.886;4.332;2023-06-10T10:16:42;7.70;;;5.72;;
13493;SDS011;6819;50.886;4.332;2023-06-10T10:19:10;11.18;;;5.65;;
13493;SDS011;6819;50.886;4.332;2023-06-10T10:21:43;7.85;;;5.93;;
13493;SDS011;6819;50.886;4.332;2023-06-10T10:24:21;6.75;;;5.30;;
13493;SDS011;6819;50.886;4.332;2023-06-10T10:26:47;6.07;;;5.40;;
13493;SDS011;6819;50.886;4.332;2023-06-10T10:29:16;6.88;;;5.25;;
13493;SDS011;6819;50.886;4.332;2023-06-10T10:31:42;8.25;;;5.35;;
13493;SDS011;6819;50.886;4.332;2023-06-10T10:34:12;6.15;;;5.15;;
13493;SDS011;6819;50.886;4.332;2023-06-10T10:36:39;5.90;;;4.82;;
13493;SDS011;6819;50.886;4.332;2023-06-10T10:39:05;9.65;;;5.57;;
13493;SDS011;6819;50.886;4.332;2023-06-10T10:41:32;6.40;;;4.75;;
13493;SDS011;6819;50.886;4.332;2023-06-10T10:43:59;8.20;;;5.50;;
13493;SDS011;6819;50.886;4.332;2023-06-10T10:46:25;6.35;;;4.57;;
13493;SDS011;6819;50.886;4.332;2023-06-10T10:48:54;6.20;;;4.88;;
13493;SDS011;6819;50.886;4.332;2023-06-10T10:51:20;6.18;;;4.97;;
13493;SDS011;6819;50.886;4.332;2023-06-10T10:56:32;8.40;;;4.82;;
13493;SDS011;6819;50.886;4.332;2023-06-10T10:59:04;7.05;;;5.45;;
13493;SDS011;6819;50.886;4.332;2023-06-10T11:01:43;6.55;;;4.78;;
13493;SDS011;6819;50.886;4.332;2023-06-10T11:04:11;6.78;;;5.32;;
13493;SDS011;6819;50.886;4.332;2023-06-10T11:06:37;6.00;;;5.18;;
13493;SDS011;6819;50.886;4.332;2023-06-10T11:09:25;7.85;;;5.10;;
13493;SDS011;6819;50.886;4.332;2023-06-10T11:11:52;8.82;;;5.22;;
13493;SDS011;6819;50.886;4.332;2023-06-10T11:14:30;7.35;;;5.82;;
13493;SDS011;6819;50.886;4.332;2023-06-10T11:16:59;9.48;;;5.32;;
13493;SDS011;6819;50.886;4.332;2023-06-10T11:19:32;11.20;;;4.93;;
13493;SDS011;6819;50.886;4.332;2023-06-10T11:22:00;7.03;;;5.03;;
13493;SDS011;6819;50.886;4.332;2023-06-10T11:24:27;5.40;;;4.57;;
13493;SDS011;6819;50.886;4.332;2023-06-10T11:26:53;7.10;;;5.18;;
13493;SDS011;6819;50.886;4.332;2023-06-10T11:29:20;8.30;;;5.70;;
13493;SDS011;6819;50.886;4.332;2023-06-10T11:31:49;7.68;;;5.00;;
13493;SDS011;6819;50.886;4.332;2023-06-10T11:34:15;7.05;;;5.30;;
13493;SDS011;6819;50.886;4.332;2023-06-10T11:36:48;6.63;;;4.63;;
13493;SDS011;6819;50.886;4.332;2023-06-10T11:39:14;10.40;;;5.63;;
13493;SDS011;6819;50.886;4.332;2023-06-10T11:41:40;6.35;;;5.60;;
13493;SDS011;6819;50.886;4.332;2023-06-10T11:44:08;7.43;;;5.55;;
13493;SDS011;6819;50.886;4.332;2023-06-10T11:46:34;7.05;;;4.93;;
13493;SDS011;6819;50.886;4.332;2023-06-10T11:49:00;9.68;;;5.82;;
13493;SDS011;6819;50.886;4.332;2023-06-10T11:51:28;6.93;;;5.60;;
13493;SDS011;6819;50.886;4.332;2023-06-10T11:53:54;9.98;;;5.07;;
13493;SDS011;6819;50.886;4.332;2023-06-10T11:56:24;7.13;;;4.93;;
13493;SDS011;6819;50.886;4.332;2023-06-10T11:58:58;12.18;;;5.40;;
13493;SDS011;6819;50.886;4.332;2023-06-10T12:01:26;6.63;;;5.40;;
13493;SDS011;6819;50.886;4.332;2023-06-10T12:03:59;7.82;;;5.13;;
13493;SDS011;6819;50.886;4.332;2023-06-10T12:06:25;6.10;;;5.35;;
13493;SDS011;6819;50.886;4.332;2023-06-10T12:08:53;8.00;;;5.15;;
13493;SDS011;6819;50.886;4.332;2023-06-10T12:11:19;7.82;;;5.40;;
13493;SDS011;6819;50.886;4.332;2023-06-10T12:13:48;11.25;;;5.70;;
13493;SDS011;6819;50.886;4.332;2023-06-10T12:16:15;6.57;;;5.20;;
13493;SDS011;6819;50.886;4.332;2023-06-10T12:18:43;7.00;;;5.72;;
13493;SDS011;6819;50.886;4.332;2023-06-10T12:21:17;6.20;;;5.40;;
13493;SDS011;6819;50.886;4.332;2023-06-10T12:24:00;9.40;;;5.75;;
13493;SDS011;6819;50.886;4.332;2023-06-10T12:26:40;7.70;;;5.50;;
13493;SDS011;6819;50.886;4.332;2023-06-10T12:31:52;9.07;;;6.28;;
13493;SDS011;6819;50.886;4.332;2023-06-10T12:34:18;8.50;;;5.57;;
13493;SDS011;6819;50.886;4.332;2023-06-10T12:36:51;6.80;;;5.95;;
13493;SDS011;6819;50.886;4.332;2023-06-10T12:39:18;7.70;;;5.93;;
13493;SDS011;6819;50.886;4.332;2023-06-10T12:41:50;10.77;;;6.03;;
13493;SDS011;6819;50.886;4.332;2023-06-10T12:44:17;11.27;;;6.43;;
13493;SDS011;6819;50.886;4.332;2023-06-10T12:46:43;9.25;;;5.57;;
13493;SDS011;6819;50.886;4.332;2023-06-10T12:49:18;7.50;;;5.65;;
13493;SDS011;6819;50.886;4.332;2023-06-10T12:51:45;6.38;;;5.65;;
13493;SDS011;6819;50.886;4.332;2023-06-10T12:54:11;5.75;;;5.22;;
13493;SDS011;6819;50.886;4.332;2023-06-10T12:56:37;7.55;;;5.88;;
13493;SDS011;6819;50.886;4.332;2023-06-10T12:59:03;8.02;;;5.13;;
13493;SDS011;6819;50.886;4.332;2023-06-10T13:01:30;6.40;;;5.45;;
13493;SDS011;6819;50.886;4.332;2023-06-10T13:03:57;6.18;;;5.40;;
13493;SDS011;6819;50.886;4.332;2023-06-10T13:06:23;6.80;;;5.40;;
13493;SDS011;6819;50.886;4.332;2023-06-10T13:08:49;6.90;;;5.28;;
13493;SDS011;6819;50.886;4.332;2023-06-10T13:11:16;5.75;;;5.20;;
13493;SDS011;6819;50.886;4.332;2023-06-10T13:13:42;8.82;;;6.82;;
13493;SDS011;6819;50.886;4.332;2023-06-10T13:16:08;7.30;;;5.88;;
13493;SDS011;6819;50.886;4.332;2023-06-10T13:18:34;7.93;;;5.53;;
13493;SDS011;6819;50.886;4.332;2023-06-10T13:21:03;10.02;;;5.57;;
13493;SDS011;6819;50.886;4.332;2023-06-10T13:23:29;6.80;;;5.50;;
13493;SDS011;6819;50.886;4.332;2023-06-10T13:25:56;7.25;;;5.68;;
13493;SDS011;6819;50.886;4.332;2023-06-10T13:28:22;5.80;;;5.00;;
13493;SDS011;6819;50.886;4.332;2023-06-10T13:30:48;15.35;;;5.65;;
13493;SDS011;6819;50.886;4.332;2023-06-10T13:33:15;8.13;;;5.90;;
13493;SDS011;6819;50.886;4.332;2023-06-10T13:35:41;7.35;;;5.75;;
13493;SDS011;6819;50.886;4.332;2023-06-10T13:38:07;6.55;;;5.80;;
13493;SDS011;6819;50.886;4.332;2023-06-10T13:40:33;8.32;;;5.30;;
13493;SDS011;6819;50.886;4.332;2023-06-10T13:42:59;7.03;;;5.38;;
13493;SDS011;6819;50.886;4.332;2023-06-10T13:45:26;7.15;;;5.65;;
13493;SDS011;6819;50.886;4.332;2023-06-10T13:47:53;8.43;;;5.32;;
13493;SDS011;6819;50.886;4.332;2023-06-10T13:50:19;6.43;;;5.82;;
13493;SDS011;6819;50.886;4.332;2023-06-10T13:52:45;10.25;;;5.63;;
13493;SDS011;6819;50.886;4.332;2023-06-10T13:55:11;9.13;;;6.47;;
13493;SDS011;6819;50.886;4.332;2023-06-10T13:57:37;8.95;;;5.28;;
13493;SDS011;6819;50.886;4.332;2023-06-10T14:00:03;5.90;;;5.30;;
13493;SDS011;6819;50.886;4.332;2023-06-10T14:02:29;6.07;;;5.18;;
13493;SDS011;6819;50.886;4.332;2023-06-10T14:04:55;7.05;;;5.93;;
13493;SDS011;6819;50.886;4.332;2023-06-10T14:07:21;10.65;;;5.50;;
13493;SDS011;6819;50.886;4.332;2023-06-10T14:09:47;8.05;;;6.18;;
13493;SDS011;6819;50.886;4.332;2023-06-10T14:12:13;6.55;;;5.00;;
13493;SDS011;6819;50.886;4.332;2023-06-10T14:14:39;7.55;;;5.60;;
13493;SDS011;6819;50.886;4.332;2023-06-10T14:17:06;6.38;;;5.78;;
13493;SDS011;6819;50.886;4.332;2023-06-10T14:19:32;7.30;;;5.45;;
13493;SDS011;6819;50.886;4.332;2023-06-10T14:21:58;7.60;;;5.50;;
13493;SDS011;6819;50.886;4.332;2023-06-10T14:24:24;8.98;;;6.05;;
13493;SDS011;6819;50.886;4.332;2023-06-10T14:26:50;8.57;;;5.75;;
13493;SDS011;6819;50.886;4.332;2023-06-10T14:29:16;8.73;;;5.55;;
13493;SDS011;6819;50.886;4.332;2023-06-10T14:31:44;6.28;;;5.68;;
13493;SDS011;6819;50.886;4.332;2023-06-10T14:34:10;10.80;;;5.78;;
13493;SDS011;6819;50.886;4.332;2023-06-10T14:36:36;12.27;;;6.40;;
13493;SDS011;6819;50.886;4.332;2023-06-10T14:39:02;7.70;;;5.78;;
13493;SDS011;6819;50.886;4.332;2023-06-10T14:41:29;6.90;;;5.97;;
13493;SDS011;6819;50.886;4.332;2023-06-10T14:43:55;7.80;;;5.50;;
13493;SDS011;6819;50.886;4.332;2023-06-10T14:46:21;12.57;;;6.68;;
13493;SDS011;6819;50.886;4.332;2023-06-10T14:48:48;9.30;;;6.93;;
13493;SDS011;6819;50.886;4.332;2023-06-10T14:51:15;7.03;;;5.82;;
13493;SDS011;6819;50.886;4.332;2023-06-10T14:53:41;9.18;;;5.88;;
13493;SDS011;6819;50.886;4.332;2023-06-10T14:56:07;10.50;;;6.38;;
13493;SDS011;6819;50.886;4.332;2023-06-10T14:58:34;7.85;;;6.40;;
13493;SDS011;6819;50.886;4.332;2023-06-10T15:01:00;12.85;;;6.65;;
13493;SDS011;6819;50.886;4.332;2023-06-10T15:03:26;6.88;;;5.55;;
13493;SDS011;6819;50.886;4.332;2023-06-10T15:05:52;8.60;;;5.50;;